createdAt,value
2017-12-19T00:01:06.233Z,-4.8
2017-12-19T00:16:06.379Z,-4.9
2017-12-19T00:21:06.444Z,-5
2017-12-19T00:36:06.310Z,-5
2017-12-19T00:41:06.448Z,-5.2
2017-12-19T00:46:06.470Z,-5.2
2017-12-19T01:06:06.690Z,-5.2
2017-12-19T01:11:06.516Z,-5.3
2017-12-19T01:26:06.794Z,-5.4
2017-12-19T01:36:06.888Z,-5.5
2017-12-19T01:41:06.718Z,-5.6
2017-12-19T01:46:06.823Z,-5.5
2017-12-19T01:51:06.972Z,-5.5
2017-12-19T02:06:08.043Z,-5.4
2017-12-19T02:11:07.094Z,-5.2
2017-12-19T02:16:06.948Z,-5.2
2017-12-19T02:21:07.040Z,-5.2
2017-12-19T02:31:07.195Z,-5.1
2017-12-19T02:36:07.225Z,-5
2017-12-19T02:41:07.386Z,-4.9
2017-12-19T02:46:07.188Z,-4.9
2017-12-19T02:51:07.246Z,-4.9
2017-12-19T02:56:07.268Z,-4.9
2017-12-19T03:01:07.187Z,-4.9
2017-12-19T03:06:07.319Z,-4.8
2017-12-19T03:21:07.383Z,-4.8
2017-12-19T03:26:07.385Z,-4.8
2017-12-19T03:31:07.478Z,-4.9
2017-12-19T03:36:07.507Z,-4.9
2017-12-19T03:41:07.652Z,-4.9
2017-12-19T03:46:07.577Z,-4.8
2017-12-19T03:51:07.485Z,-5
2017-12-19T03:56:07.400Z,-5
2017-12-19T04:01:07.387Z,-4.9
2017-12-19T04:06:07.401Z,-5
2017-12-19T04:11:07.495Z,-5
2017-12-19T04:16:07.535Z,-5.1
2017-12-19T04:26:07.655Z,-5.1
2017-12-19T04:31:07.737Z,-5.1
2017-12-19T04:36:07.752Z,-5.2
2017-12-19T04:41:07.789Z,-5.2
2017-12-19T04:46:07.574Z,-5.1
2017-12-19T04:56:07.676Z,-5.2
2017-12-19T05:01:07.697Z,-5.2
2017-12-19T05:11:07.655Z,-5.2
2017-12-19T05:16:07.796Z,-5.3
2017-12-19T05:21:07.822Z,-5.2
2017-12-19T05:26:07.869Z,-5.2
2017-12-19T05:31:07.778Z,-5.1
2017-12-19T05:36:07.677Z,-5.3
2017-12-19T05:46:07.899Z,-5.1
2017-12-19T05:51:07.924Z,-5.2
2017-12-19T05:56:07.902Z,-5.2
2017-12-19T06:01:08.183Z,-5.3
2017-12-19T06:06:07.995Z,-5.3
2017-12-19T06:11:08.021Z,-5.2
2017-12-19T06:16:07.925Z,-5.1
2017-12-19T06:21:08.026Z,-5.2
2017-12-19T06:26:08.008Z,-5.1
2017-12-19T06:31:09.085Z,-5.1
2017-12-19T06:36:07.930Z,-5.1
2017-12-19T06:41:08.123Z,-5.2
2017-12-19T06:51:07.928Z,-5.2
2017-12-19T06:56:08.005Z,-5.1
2017-12-19T07:01:08.140Z,-5.3
2017-12-19T07:06:08.043Z,-5.2
2017-12-19T07:11:08.097Z,-5.2
2017-12-19T07:16:08.019Z,-5.1
2017-12-19T07:21:08.149Z,-5.1
2017-12-19T07:26:08.069Z,-5.1
2017-12-19T07:31:08.130Z,-4.9
2017-12-19T07:36:07.969Z,-4.9
2017-12-19T07:41:08.038Z,-4.8
2017-12-19T07:46:08.084Z,-4.7
2017-12-19T07:56:08.171Z,-4.7
2017-12-19T08:01:08.074Z,-4.7
2017-12-19T08:06:08.119Z,-4.5
2017-12-19T08:11:07.979Z,-4.4
2017-12-19T08:16:07.994Z,-4.2
2017-12-19T08:21:08.000Z,-4.2
2017-12-19T08:26:08.091Z,-4.2
2017-12-19T08:31:08.002Z,-4.1
2017-12-19T08:36:07.989Z,-4
2017-12-19T08:41:08.005Z,-3.7
2017-12-19T09:06:08.891Z,-3.2
2017-12-19T09:11:09.029Z,-3.2
2017-12-19T10:11:09.490Z,-1.8
2017-12-19T10:26:09.357Z,-1.4
2017-12-19T11:06:09.829Z,-0.9
2017-12-19T11:51:09.879Z,-0.7
2017-12-19T11:56:09.902Z,-0.5
2017-12-19T12:11:10.014Z,-0.5
2017-12-19T12:16:10.044Z,-0.6
2017-12-19T12:26:10.121Z,-0.5
2017-12-19T12:31:10.120Z,-0.3
2017-12-19T12:36:10.050Z,-0.2
2017-12-19T12:41:10.104Z,-0.1
2017-12-19T12:46:09.968Z,-0.1
2017-12-19T12:51:10.133Z,-0.2
2017-12-19T12:56:10.287Z,-0.2
2017-12-19T13:01:10.195Z,-0.2
2017-12-19T13:06:10.092Z,-0.2
2017-12-19T13:11:10.279Z,-0.1
2017-12-19T13:16:10.270Z,0
2017-12-19T13:37:41.778Z,-0.1
2017-12-19T13:42:41.640Z,-0.1
2017-12-19T13:52:41.660Z,-0.1
2017-12-19T13:57:41.822Z,-0.1
2017-12-19T14:02:41.836Z,-0.1
2017-12-19T14:07:41.866Z,-0.2
2017-12-19T15:02:42.066Z,-0.8
2017-12-19T15:22:42.231Z,-0.8
2017-12-19T15:27:42.129Z,-0.8
2017-12-19T15:40:25.392Z,-0.8
2017-12-19T15:54:46.692Z,-0.9
2017-12-19T16:34:05.621Z,-0.8
2017-12-19T16:39:05.427Z,-0.8
2017-12-19T16:44:05.432Z,-0.8
2017-12-19T16:49:05.464Z,-0.8
2017-12-19T16:54:05.466Z,-0.8
2017-12-19T17:04:20.061Z,-0.8
2017-12-19T17:09:10.374Z,-0.8
2017-12-19T17:14:10.087Z,-0.8
2017-12-19T17:19:10.254Z,-0.8
2017-12-19T17:24:10.585Z,-0.8
2017-12-19T17:29:10.473Z,-0.7
2017-12-19T17:34:10.279Z,-0.8
2017-12-19T17:39:10.544Z,-0.8
2017-12-19T17:44:10.083Z,-0.8
2017-12-19T17:49:10.118Z,-0.7
2017-12-19T17:54:10.113Z,-0.7
2017-12-19T17:59:10.390Z,-0.7
2017-12-19T18:04:10.445Z,-0.7
2017-12-19T18:09:10.178Z,-0.7
2017-12-19T18:14:11.260Z,-0.7
2017-12-19T18:19:12.127Z,-0.7
2017-12-19T18:24:10.169Z,-0.7
2017-12-19T18:29:10.280Z,-0.7
2017-12-19T18:34:10.948Z,-0.7
2017-12-19T18:39:10.473Z,-0.7
2017-12-19T18:44:10.504Z,-0.7
2017-12-19T18:49:10.292Z,-0.7
2017-12-19T18:54:10.116Z,-0.7
2017-12-19T18:59:10.262Z,-0.7
2017-12-19T19:04:10.122Z,-0.7
2017-12-19T19:09:10.159Z,-0.7
2017-12-19T19:14:10.128Z,-0.7
2017-12-19T19:19:10.365Z,-0.7
2017-12-19T19:24:10.160Z,-0.7
2017-12-19T19:29:10.152Z,-0.6
2017-12-19T19:34:10.413Z,-0.6
2017-12-19T19:39:10.341Z,-0.6
2017-12-19T19:44:10.174Z,-0.6
2017-12-19T19:49:10.159Z,-0.6
2017-12-19T19:54:10.276Z,-0.5
2017-12-19T19:59:10.177Z,-0.5
2017-12-19T20:04:10.193Z,-0.5
2017-12-19T20:09:10.221Z,-0.4
2017-12-19T20:14:12.414Z,-0.3
2017-12-19T20:19:12.020Z,-0.3
2017-12-19T20:24:10.394Z,-0.3
2017-12-19T20:29:10.332Z,-0.3
2017-12-19T20:34:10.184Z,-0.3
2017-12-19T20:39:10.248Z,-0.2
2017-12-19T20:44:10.205Z,-0.1
2017-12-19T20:49:10.954Z,-0.2
2017-12-19T20:54:10.469Z,-0.1
2017-12-19T20:59:10.792Z,-0.1
2017-12-19T21:04:10.286Z,-0.1
2017-12-19T21:09:10.233Z,-0.1
2017-12-19T21:14:10.218Z,0
2017-12-19T21:19:10.288Z,0
2017-12-19T21:24:10.649Z,0
2017-12-19T21:29:10.207Z,0
2017-12-19T21:34:11.063Z,0
2017-12-19T21:39:12.534Z,0
2017-12-19T21:49:11.256Z,0.1
2017-12-19T21:54:11.186Z,0.1
2017-12-19T21:59:11.102Z,0.1
2017-12-19T22:04:11.119Z,0.1
2017-12-19T22:09:11.277Z,0.1
2017-12-19T22:24:11.480Z,0.1
2017-12-19T22:29:11.412Z,0.1
2017-12-19T22:34:11.529Z,0.1
2017-12-19T22:39:11.556Z,0.1
2017-12-19T22:44:11.304Z,0.1
2017-12-19T22:49:11.540Z,0.1
2017-12-19T22:54:11.439Z,0.1
2017-12-19T22:59:11.480Z,0.2
2017-12-19T23:04:11.527Z,0.2
2017-12-19T23:09:11.389Z,0.2
2017-12-19T23:14:11.441Z,0.2
2017-12-19T23:19:11.461Z,0.2
2017-12-19T23:24:11.412Z,0.2
2017-12-19T23:29:11.549Z,0.2
2017-12-19T23:34:11.568Z,0.2
2017-12-19T23:39:11.517Z,0.2
2017-12-19T23:44:11.527Z,0.2
2017-12-19T23:49:11.391Z,0.2
2017-12-19T23:54:11.481Z,0.3
2017-12-19T23:59:11.428Z,0.3
